ココス (キーリング) 諸島 の空港の天気 - METARとTAF

ココス島国際空港 ( YPCC / CCK ) - ココス諸島 ココス (キーリング) 諸島
飛行場実況気象(Metar)
観測時間10/16 13:00 CCT (10/16 06:30 UTC)
風向・風速南東 7m/s
視程10km以上
天気現象
少しの雲 雲底高度 490m
気温28℃
湿度74%
気圧1014hPa
METARYPCC 160630Z 13013KT 9999 FEW016 28/23 Q1014
過去の天気等 Google飛行場航空写真 Wunderground天気予報

過去48時間のMETAR

飛行場予報(TAF)
発表時間: 10/16 11:46 CCT (10/16 05:16 UTC)
予報対象時間: 16日12時 CCT ~ 17日12時 CCT
風向・風速東南東 6m/s
視程10km以上
天気現象弱いしゅう雨
全天の4割程度の雲 雲底高度 550m
TAF YPCC 160516Z 1606/1706 12012KT 9999 -SHRA SCT018